createdAt,value
2018-02-18T00:00:14.574Z,1029.32
2018-02-18T00:01:14.528Z,1029.32
2018-02-18T00:02:14.521Z,1029.3
2018-02-18T00:03:14.562Z,1029.32
2018-02-18T00:04:14.543Z,1029.31
2018-02-18T00:05:14.622Z,1029.32
2018-02-18T00:06:14.572Z,1029.3
2018-02-18T00:07:14.546Z,1029.32
2018-02-18T00:08:14.553Z,1029.32
2018-02-18T00:09:14.597Z,1029.33
2018-02-18T00:10:14.743Z,1029.34
2018-02-18T00:11:14.717Z,1029.35
2018-02-18T00:12:14.750Z,1029.35
2018-02-18T00:13:14.556Z,1029.4
2018-02-18T00:14:14.721Z,1029.38
2018-02-18T00:15:14.739Z,1029.42
2018-02-18T00:16:14.735Z,1029.38
2018-02-18T00:17:14.572Z,1029.42
2018-02-18T00:18:14.582Z,1029.45
2018-02-18T00:19:14.582Z,1029.48
2018-02-18T00:20:14.596Z,1029.48
2018-02-18T00:21:14.576Z,1029.47
2018-02-18T00:22:14.569Z,1029.49
2018-02-18T00:23:14.625Z,1029.46
2018-02-18T00:24:14.590Z,1029.46
2018-02-18T00:25:14.599Z,1029.51
2018-02-18T00:26:14.592Z,1029.45
2018-02-18T00:27:14.590Z,1029.53
2018-02-18T00:28:14.594Z,1029.52
2018-02-18T00:29:14.600Z,1029.61
2018-02-18T00:30:15.171Z,1029.59
2018-02-18T00:31:14.600Z,1029.56
2018-02-18T00:32:14.609Z,1029.58
2018-02-18T00:33:14.601Z,1029.59
2018-02-18T00:34:14.602Z,1029.58
2018-02-18T00:35:14.630Z,1029.6
2018-02-18T00:36:14.612Z,1029.53
2018-02-18T00:37:14.613Z,1029.55
2018-02-18T00:38:14.620Z,1029.6
2018-02-18T00:39:14.628Z,1029.57
2018-02-18T00:40:14.675Z,1029.59
2018-02-18T00:41:14.643Z,1029.65
2018-02-18T00:42:14.663Z,1029.66
2018-02-18T00:43:14.644Z,1029.65
2018-02-18T00:44:14.653Z,1029.65
2018-02-18T00:45:14.656Z,1029.7
2018-02-18T00:46:14.664Z,1029.67
2018-02-18T00:47:14.702Z,1029.67
2018-02-18T00:48:14.674Z,1029.71
2018-02-18T00:49:14.682Z,1029.74
2018-02-18T00:50:14.674Z,1029.72
2018-02-18T00:51:14.671Z,1029.75
2018-02-18T00:52:14.686Z,1029.71
2018-02-18T00:53:14.695Z,1029.73
2018-02-18T00:54:14.841Z,1029.72
2018-02-18T00:55:14.829Z,1029.74
2018-02-18T00:56:14.689Z,1029.73
2018-02-18T00:57:14.704Z,1029.74
2018-02-18T00:58:14.874Z,1029.75
2018-02-18T00:59:14.873Z,1029.72
2018-02-18T01:00:14.865Z,1029.72
2018-02-18T01:01:14.717Z,1029.75
2018-02-18T01:02:14.716Z,1029.79
2018-02-18T01:03:14.709Z,1029.78
2018-02-18T01:04:14.740Z,1029.79
2018-02-18T01:05:14.876Z,1029.8
2018-02-18T01:06:14.877Z,1029.81
2018-02-18T01:07:14.722Z,1029.79
2018-02-18T01:08:14.723Z,1029.8
2018-02-18T01:09:14.901Z,1029.76
2018-02-18T01:10:14.913Z,1029.77
2018-02-18T01:11:14.898Z,1029.76
2018-02-18T01:12:14.901Z,1029.78
2018-02-18T01:13:14.746Z,1029.79
2018-02-18T01:14:14.913Z,1029.81
2018-02-18T01:15:15.076Z,1029.82
2018-02-18T01:16:14.915Z,1029.88
2018-02-18T01:17:14.918Z,1029.87
2018-02-18T01:18:14.934Z,1029.93
2018-02-18T01:19:14.770Z,1029.94
2018-02-18T01:20:14.800Z,1029.97
2018-02-18T01:21:14.777Z,1029.94
2018-02-18T01:22:14.783Z,1029.92
2018-02-18T01:23:14.778Z,1029.99
2018-02-18T01:24:14.784Z,1029.95
2018-02-18T01:25:14.810Z,1029.96
2018-02-18T01:26:14.778Z,1030
2018-02-18T01:27:14.793Z,1029.95
2018-02-18T01:28:14.953Z,1030
2018-02-18T01:29:14.799Z,1029.97
2018-02-18T01:30:14.792Z,1030.01
2018-02-18T01:31:14.960Z,1029.99
2018-02-18T01:32:14.805Z,1030
2018-02-18T01:33:14.817Z,1030.02
2018-02-18T01:34:14.822Z,1030.03
2018-02-18T01:35:14.810Z,1030.02
2018-02-18T01:36:14.997Z,1030.01
2018-02-18T01:37:15.090Z,1030.06
2018-02-18T01:38:14.834Z,1030.05
2018-02-18T01:39:14.829Z,1030.05
2018-02-18T01:40:14.836Z,1030.05
2018-02-18T01:41:14.837Z,1030.12
2018-02-18T01:42:14.869Z,1030.12
2018-02-18T01:43:14.865Z,1030.12
2018-02-18T01:44:14.855Z,1030.16
2018-02-18T01:45:14.863Z,1030.11
2018-02-18T01:46:14.855Z,1030.12
2018-02-18T01:47:15.082Z,1030.1
2018-02-18T01:48:14.870Z,1030.1
2018-02-18T01:49:14.879Z,1030.08
2018-02-18T01:50:14.883Z,1030.17
2018-02-18T01:51:14.891Z,1030.07
2018-02-18T01:52:14.911Z,1030.12
2018-02-18T01:53:14.878Z,1030.11
2018-02-18T01:54:14.882Z,1030.15
2018-02-18T01:55:14.893Z,1030.13
2018-02-18T01:56:14.892Z,1030.16
2018-02-18T01:57:14.910Z,1030.18
2018-02-18T01:58:14.898Z,1030.17
2018-02-18T01:59:14.896Z,1030.16
2018-02-18T02:00:14.917Z,1030.2
2018-02-18T02:01:14.909Z,1030.17
2018-02-18T02:02:15.122Z,1030.15
2018-02-18T02:03:14.915Z,1030.15
2018-02-18T02:04:14.914Z,1030.16
2018-02-18T02:05:15.077Z,1030.17
2018-02-18T02:06:15.095Z,1030.18
2018-02-18T02:07:15.423Z,1030.2
2018-02-18T02:08:15.087Z,1030.19
2018-02-18T02:09:15.087Z,1030.2
2018-02-18T02:10:15.120Z,1030.21
2018-02-18T02:11:15.109Z,1030.18
2018-02-18T02:12:15.133Z,1030.21
2018-02-18T02:13:15.109Z,1030.16
2018-02-18T02:14:14.964Z,1030.14
2018-02-18T02:15:15.115Z,1030.17
2018-02-18T02:16:15.158Z,1030.16
2018-02-18T02:17:15.127Z,1030.17
2018-02-18T02:18:15.136Z,1030.13
2018-02-18T02:19:14.996Z,1030.12
2018-02-18T02:20:14.997Z,1030.08
2018-02-18T02:21:15.153Z,1030.14
2018-02-18T02:22:15.159Z,1030.15
2018-02-18T02:23:15.008Z,1030.14
2018-02-18T02:24:14.993Z,1030.18
2018-02-18T02:25:15.002Z,1030.15
2018-02-18T02:26:15.021Z,1030.17
2018-02-18T02:27:15.012Z,1030.16
2018-02-18T02:28:15.076Z,1030.18
2018-02-18T02:29:15.015Z,1030.17
2018-02-18T02:30:15.031Z,1030.14
2018-02-18T02:31:15.024Z,1030.16
2018-02-18T02:32:15.032Z,1030.16
2018-02-18T02:33:15.062Z,1030.18
2018-02-18T02:34:15.040Z,1030.15
2018-02-18T02:35:15.044Z,1030.2
2018-02-18T02:36:15.054Z,1030.17
2018-02-18T02:37:15.040Z,1030.18
2018-02-18T02:38:15.347Z,1030.22
2018-02-18T02:39:15.055Z,1030.19
2018-02-18T02:40:15.052Z,1030.21
2018-02-18T02:41:15.060Z,1030.24
2018-02-18T02:42:15.048Z,1030.22
2018-02-18T02:43:15.225Z,1030.25
2018-02-18T02:44:15.062Z,1030.23
2018-02-18T02:45:15.047Z,1030.26
2018-02-18T02:46:15.055Z,1030.27
2018-02-18T02:47:15.062Z,1030.25
2018-02-18T02:48:15.079Z,1030.31
2018-02-18T02:49:15.051Z,1030.28
2018-02-18T02:50:15.056Z,1030.32
2018-02-18T02:51:15.065Z,1030.29
2018-02-18T02:52:15.110Z,1030.29
2018-02-18T02:53:15.330Z,1030.33
2018-02-18T02:54:15.068Z,1030.32
2018-02-18T02:55:15.085Z,1030.29
2018-02-18T02:56:15.084Z,1030.29
2018-02-18T02:57:15.100Z,1030.28
2018-02-18T02:58:15.106Z,1030.26
2018-02-18T02:59:15.087Z,1030.29
2018-02-18T03:00:15.091Z,1030.24
2018-02-18T03:01:15.097Z,1030.23
2018-02-18T03:02:15.122Z,1030.24
2018-02-18T03:03:15.130Z,1030.27
2018-02-18T03:04:15.131Z,1030.26
2018-02-18T03:05:15.118Z,1030.26
2018-02-18T03:06:15.121Z,1030.24
2018-02-18T03:07:15.139Z,1030.26
2018-02-18T03:08:15.159Z,1030.22
2018-02-18T03:09:15.143Z,1030.21
2018-02-18T03:10:15.154Z,1030.27
2018-02-18T03:11:15.155Z,1030.28
2018-02-18T03:12:15.168Z,1030.25
2018-02-18T03:13:15.185Z,1030.25
2018-02-18T03:14:15.191Z,1030.26
2018-02-18T03:15:15.209Z,1030.29
2018-02-18T03:16:15.177Z,1030.25
2018-02-18T03:17:15.334Z,1030.27
2018-02-18T03:18:15.368Z,1030.23
2018-02-18T03:19:15.373Z,1030.28
2018-02-18T03:20:15.344Z,1030.33
2018-02-18T03:21:15.351Z,1030.33
2018-02-18T03:22:15.357Z,1030.35
2018-02-18T03:23:15.381Z,1030.32
2018-02-18T03:24:15.367Z,1030.34
2018-02-18T03:25:15.375Z,1030.38
2018-02-18T03:26:15.380Z,1030.37
2018-02-18T03:27:15.365Z,1030.39
2018-02-18T03:28:15.405Z,1030.36
2018-02-18T03:29:15.371Z,1030.38
2018-02-18T03:30:15.377Z,1030.38
2018-02-18T03:31:15.217Z,1030.36
2018-02-18T03:32:15.374Z,1030.42
2018-02-18T03:33:15.408Z,1030.38
2018-02-18T03:34:15.413Z,1030.41
2018-02-18T03:35:15.383Z,1030.41
2018-02-18T03:36:15.386Z,1030.43
2018-02-18T03:37:15.395Z,1030.41
2018-02-18T03:38:15.398Z,1030.45
2018-02-18T03:39:15.422Z,1030.41
2018-02-18T03:40:15.262Z,1030.42
2018-02-18T03:41:15.398Z,1030.45
2018-02-18T03:42:15.446Z,1030.48
2018-02-18T03:43:15.269Z,1030.45
2018-02-18T03:44:15.422Z,1030.45
2018-02-18T03:45:15.591Z,1030.48
2018-02-18T03:46:15.270Z,1030.43
2018-02-18T03:47:15.272Z,1030.42
2018-02-18T03:48:15.277Z,1030.43
2018-02-18T03:49:15.272Z,1030.46
2018-02-18T03:50:15.293Z,1030.43
2018-02-18T03:51:15.282Z,1030.46
2018-02-18T03:52:15.286Z,1030.45
2018-02-18T03:53:15.295Z,1030.4
2018-02-18T03:54:15.299Z,1030.38
2018-02-18T03:55:15.306Z,1030.41
2018-02-18T03:56:15.417Z,1030.4
2018-02-18T03:57:15.322Z,1030.42
2018-02-18T03:58:15.318Z,1030.42
2018-02-18T03:59:15.318Z,1030.45
2018-02-18T04:00:15.325Z,1030.47
2018-02-18T04:01:15.346Z,1030.44
2018-02-18T04:02:15.417Z,1030.48
2018-02-18T04:03:15.498Z,1030.49
2018-02-18T04:04:15.330Z,1030.45
2018-02-18T04:05:15.337Z,1030.52
2018-02-18T04:06:15.344Z,1030.52
2018-02-18T04:07:15.372Z,1030.52
2018-02-18T04:08:15.377Z,1030.52
2018-02-18T04:09:15.390Z,1030.54
2018-02-18T04:10:15.374Z,1030.57
2018-02-18T04:11:15.392Z,1030.59
2018-02-18T04:12:15.391Z,1030.58
2018-02-18T04:13:15.403Z,1030.58
2018-02-18T04:14:15.409Z,1030.59
2018-02-18T04:15:15.550Z,1030.56
2018-02-18T04:16:15.404Z,1030.58
2018-02-18T04:17:15.411Z,1030.58
2018-02-18T04:18:15.419Z,1030.63
2018-02-18T04:19:15.601Z,1030.64
2018-02-18T04:20:15.449Z,1030.67
2018-02-18T04:21:15.625Z,1030.71
2018-02-18T04:22:15.447Z,1030.7
2018-02-18T04:23:15.455Z,1030.76
2018-02-18T04:24:15.461Z,1030.76
2018-02-18T04:25:15.465Z,1030.77
2018-02-18T04:26:15.470Z,1030.79
2018-02-18T04:27:15.462Z,1030.81
2018-02-18T04:28:15.471Z,1030.84
2018-02-18T04:29:15.626Z,1030.82
2018-02-18T04:30:15.629Z,1030.84
2018-02-18T04:31:15.677Z,1030.81
2018-02-18T04:32:15.645Z,1030.85
2018-02-18T04:33:15.643Z,1030.81
2018-02-18T04:34:15.651Z,1030.81
2018-02-18T04:35:15.491Z,1030.8
2018-02-18T04:36:15.660Z,1030.82
2018-02-18T04:37:15.663Z,1030.76
2018-02-18T04:38:15.672Z,1030.78
2018-02-18T04:39:15.681Z,1030.77
2018-02-18T04:40:15.674Z,1030.81
2018-02-18T04:41:15.679Z,1030.82
2018-02-18T04:42:15.758Z,1030.83
2018-02-18T04:43:15.729Z,1030.78
2018-02-18T04:44:15.680Z,1030.77
2018-02-18T04:45:15.690Z,1030.78
2018-02-18T04:46:15.697Z,1030.8
2018-02-18T04:47:15.706Z,1030.8
2018-02-18T04:48:15.575Z,1030.75
2018-02-18T04:49:15.557Z,1030.74
2018-02-18T04:50:15.546Z,1030.71
2018-02-18T04:51:15.606Z,1030.72
2018-02-18T04:52:15.712Z,1030.7
2018-02-18T04:53:15.583Z,1030.7
2018-02-18T04:54:15.571Z,1030.76
2018-02-18T04:55:15.585Z,1030.74
2018-02-18T04:56:15.574Z,1030.73
2018-02-18T04:57:15.601Z,1030.7
2018-02-18T04:58:15.599Z,1030.7
2018-02-18T04:59:15.594Z,1030.7
2018-02-18T05:00:15.616Z,1030.7
2018-02-18T05:01:15.627Z,1030.65
2018-02-18T05:02:15.613Z,1030.65
2018-02-18T05:03:15.629Z,1030.65
2018-02-18T05:04:15.631Z,1030.69
2018-02-18T05:05:15.627Z,1030.71
2018-02-18T05:06:15.627Z,1030.7
2018-02-18T05:07:15.633Z,1030.72
2018-02-18T05:08:15.646Z,1030.73
2018-02-18T05:09:15.641Z,1030.74
2018-02-18T05:10:15.651Z,1030.75
2018-02-18T05:11:15.649Z,1030.78
2018-02-18T05:12:15.660Z,1030.75
2018-02-18T05:13:15.652Z,1030.77
2018-02-18T05:14:15.643Z,1030.78
2018-02-18T05:15:15.652Z,1030.76
2018-02-18T05:16:15.648Z,1030.77
2018-02-18T05:17:15.653Z,1030.78
2018-02-18T05:18:15.648Z,1030.79
2018-02-18T05:19:15.649Z,1030.79
2018-02-18T05:20:15.651Z,1030.8
2018-02-18T05:21:15.677Z,1030.82
2018-02-18T05:22:15.668Z,1030.84
2018-02-18T05:23:15.676Z,1030.88
2018-02-18T05:24:15.685Z,1030.86
2018-02-18T05:25:15.689Z,1030.84
2018-02-18T05:26:15.696Z,1030.86
2018-02-18T05:27:15.721Z,1030.85
2018-02-18T05:28:15.705Z,1030.88
2018-02-18T05:29:15.735Z,1030.88
2018-02-18T05:30:15.718Z,1030.9
2018-02-18T05:31:15.745Z,1030.89
2018-02-18T05:32:15.720Z,1030.95
2018-02-18T05:33:15.719Z,1030.95
2018-02-18T05:34:15.735Z,1030.96
2018-02-18T05:35:15.738Z,1030.95
2018-02-18T05:36:15.759Z,1030.96
2018-02-18T05:37:15.772Z,1031.02
2018-02-18T05:38:15.729Z,1030.98
2018-02-18T05:39:15.737Z,1031.03
2018-02-18T05:40:15.908Z,1031.04
2018-02-18T05:41:15.894Z,1031.03
2018-02-18T05:42:15.917Z,1031.04
2018-02-18T05:43:15.911Z,1031.02
2018-02-18T05:44:15.918Z,1031.11
2018-02-18T05:45:15.925Z,1031.1
2018-02-18T05:46:15.985Z,1031.1
2018-02-18T05:47:15.952Z,1031.15
2018-02-18T05:48:15.936Z,1031.12
2018-02-18T05:49:15.944Z,1031.13
2018-02-18T05:50:15.946Z,1031.16
2018-02-18T05:51:15.943Z,1031.2
2018-02-18T05:52:15.977Z,1031.23
2018-02-18T05:53:15.963Z,1031.22
2018-02-18T05:54:15.961Z,1031.27
2018-02-18T05:55:15.966Z,1031.28
2018-02-18T05:56:15.968Z,1031.28
2018-02-18T05:57:16.020Z,1031.25
2018-02-18T05:58:15.812Z,1031.27
2018-02-18T05:59:15.830Z,1031.28
2018-02-18T06:00:15.836Z,1031.27
2018-02-18T06:01:15.841Z,1031.3
2018-02-18T06:02:15.865Z,1031.31
2018-02-18T06:03:15.842Z,1031.3
2018-02-18T06:04:15.851Z,1031.31
2018-02-18T06:05:15.848Z,1031.29
2018-02-18T06:06:15.849Z,1031.34
2018-02-18T06:07:15.861Z,1031.37
2018-02-18T06:08:15.867Z,1031.37
2018-02-18T06:09:15.862Z,1031.41
2018-02-18T06:10:15.886Z,1031.38
2018-02-18T06:11:15.884Z,1031.39
2018-02-18T06:12:15.890Z,1031.37
2018-02-18T06:13:15.884Z,1031.35
2018-02-18T06:14:15.889Z,1031.34
2018-02-18T06:15:15.905Z,1031.31
2018-02-18T06:16:15.894Z,1031.32
2018-02-18T06:17:15.947Z,1031.3
2018-02-18T06:18:15.906Z,1031.31
2018-02-18T06:19:15.914Z,1031.33
2018-02-18T06:20:15.924Z,1031.35
2018-02-18T06:21:15.916Z,1031.32
2018-02-18T06:22:15.939Z,1031.33
2018-02-18T06:23:15.929Z,1031.34
2018-02-18T06:24:15.906Z,1031.35
2018-02-18T06:25:15.913Z,1031.35
2018-02-18T06:26:15.919Z,1031.37
2018-02-18T06:27:15.987Z,1031.4
2018-02-18T06:28:15.940Z,1031.42
2018-02-18T06:29:15.968Z,1031.47
2018-02-18T06:30:15.947Z,1031.46
2018-02-18T06:31:15.952Z,1031.4
2018-02-18T06:32:16.017Z,1031.5
2018-02-18T06:33:15.955Z,1031.42
2018-02-18T06:34:15.980Z,1031.44
2018-02-18T06:35:15.958Z,1031.45
2018-02-18T06:36:15.960Z,1031.44
2018-02-18T06:37:15.963Z,1031.4
2018-02-18T06:38:16.053Z,1031.4
2018-02-18T06:39:15.993Z,1031.42
2018-02-18T06:40:15.985Z,1031.46
2018-02-18T06:41:15.995Z,1031.47
2018-02-18T06:42:15.990Z,1031.45
2018-02-18T06:43:16.158Z,1031.48
2018-02-18T06:44:16.184Z,1031.49
2018-02-18T06:45:16.000Z,1031.45
2018-02-18T06:46:16.011Z,1031.41
2018-02-18T06:47:16.004Z,1031.37
2018-02-18T06:48:16.004Z,1031.37
2018-02-18T06:49:16.020Z,1031.34
2018-02-18T06:50:16.025Z,1031.32
2018-02-18T06:51:16.046Z,1031.32
2018-02-18T06:52:16.226Z,1031.26
2018-02-18T06:53:16.193Z,1031.26
2018-02-18T06:54:16.208Z,1031.3
2018-02-18T06:55:16.051Z,1031.27
2018-02-18T06:56:16.197Z,1031.24
2018-02-18T06:57:16.220Z,1031.26
2018-02-18T06:58:16.202Z,1031.27
2018-02-18T06:59:16.206Z,1031.25
2018-02-18T07:00:16.221Z,1031.22
2018-02-18T07:01:16.219Z,1031.28
2018-02-18T07:02:16.265Z,1031.27
2018-02-18T07:03:16.069Z,1031.27
2018-02-18T07:04:16.231Z,1031.31
2018-02-18T07:05:16.231Z,1031.35
2018-02-18T07:06:16.237Z,1031.36
2018-02-18T07:07:16.247Z,1031.36
2018-02-18T07:08:16.254Z,1031.36
2018-02-18T07:09:16.247Z,1031.4
2018-02-18T07:10:16.096Z,1031.41
2018-02-18T07:11:16.103Z,1031.4
2018-02-18T07:12:16.123Z,1031.4
2018-02-18T07:13:16.106Z,1031.4
2018-02-18T07:14:16.110Z,1031.42
2018-02-18T07:15:16.132Z,1031.44
2018-02-18T07:16:16.113Z,1031.43
2018-02-18T07:17:16.143Z,1031.48
2018-02-18T07:18:16.126Z,1031.52
2018-02-18T07:19:16.310Z,1031.49
2018-02-18T07:20:16.127Z,1031.48
2018-02-18T07:21:16.149Z,1031.5
2018-02-18T07:22:16.129Z,1031.54
2018-02-18T07:23:16.146Z,1031.49
2018-02-18T07:24:16.139Z,1031.54
2018-02-18T07:25:16.134Z,1031.55
2018-02-18T07:26:16.141Z,1031.52
2018-02-18T07:27:16.151Z,1031.59
2018-02-18T07:28:16.626Z,1031.55
2018-02-18T07:29:16.301Z,1031.54
2018-02-18T07:30:16.166Z,1031.59
2018-02-18T07:31:16.166Z,1031.52
2018-02-18T07:32:16.168Z,1031.49
2018-02-18T07:33:16.192Z,1031.51
2018-02-18T07:34:16.171Z,1031.44
2018-02-18T07:35:16.175Z,1031.44
2018-02-18T07:36:16.172Z,1031.4
2018-02-18T07:37:16.187Z,1031.4
2018-02-18T07:38:16.205Z,1031.39
2018-02-18T07:39:16.188Z,1031.39
2018-02-18T07:40:16.184Z,1031.36
2018-02-18T07:41:16.260Z,1031.4
2018-02-18T07:42:16.339Z,1031.39
2018-02-18T07:43:16.209Z,1031.44
2018-02-18T07:44:16.221Z,1031.39
2018-02-18T07:45:16.379Z,1031.43
2018-02-18T07:46:16.235Z,1031.46
2018-02-18T07:47:16.263Z,1031.44
2018-02-18T07:48:16.548Z,1031.38
2018-02-18T07:49:16.241Z,1031.44
2018-02-18T07:50:16.325Z,1031.44
2018-02-18T07:51:16.246Z,1031.46
2018-02-18T07:52:16.251Z,1031.43
2018-02-18T07:53:16.245Z,1031.49
2018-02-18T07:54:16.244Z,1031.42
2018-02-18T07:55:16.257Z,1031.44
2018-02-18T07:56:16.252Z,1031.4
2018-02-18T07:57:16.270Z,1031.43
2018-02-18T07:58:16.288Z,1031.4
2018-02-18T07:59:16.267Z,1031.4
2018-02-18T08:00:16.283Z,1031.36
2018-02-18T08:01:16.291Z,1031.39
2018-02-18T08:02:16.294Z,1031.41
2018-02-18T08:03:16.453Z,1031.44
2018-02-18T08:04:16.435Z,1031.47
2018-02-18T08:05:16.432Z,1031.49
2018-02-18T08:06:16.521Z,1031.46
2018-02-18T08:07:16.447Z,1031.44
2018-02-18T08:08:16.460Z,1031.46
2018-02-18T08:09:16.493Z,1031.48
2018-02-18T08:10:16.475Z,1031.42
2018-02-18T08:11:16.490Z,1031.44
2018-02-18T08:12:16.477Z,1031.44
2018-02-18T08:13:16.482Z,1031.49
2018-02-18T08:14:16.504Z,1031.47
2018-02-18T08:15:16.487Z,1031.46
2018-02-18T08:16:16.332Z,1031.47
2018-02-18T08:17:16.488Z,1031.42
2018-02-18T08:18:16.487Z,1031.44
2018-02-18T08:19:16.514Z,1031.46
2018-02-18T08:20:16.491Z,1031.49
2018-02-18T08:21:16.341Z,1031.46
2018-02-18T08:22:16.337Z,1031.51
2018-02-18T08:23:16.345Z,1031.49
2018-02-18T08:24:16.342Z,1031.48
2018-02-18T08:25:16.350Z,1031.52
2018-02-18T08:26:16.359Z,1031.5
2018-02-18T08:27:16.352Z,1031.53
2018-02-18T08:28:16.393Z,1031.57
2018-02-18T08:29:16.353Z,1031.54
2018-02-18T08:30:16.360Z,1031.53
2018-02-18T08:31:16.369Z,1031.54
2018-02-18T08:32:16.366Z,1031.5
2018-02-18T08:33:16.363Z,1031.51
2018-02-18T08:34:16.371Z,1031.51
2018-02-18T08:35:16.633Z,1031.47
2018-02-18T08:36:16.399Z,1031.49
2018-02-18T08:37:16.672Z,1031.45
2018-02-18T08:38:16.382Z,1031.47
2018-02-18T08:39:16.411Z,1031.44
2018-02-18T08:40:16.397Z,1031.46
2018-02-18T08:41:16.425Z,1031.4
2018-02-18T08:42:16.392Z,1031.43
2018-02-18T08:43:16.391Z,1031.39
2018-02-18T08:44:16.614Z,1031.42
2018-02-18T08:45:16.439Z,1031.42
2018-02-18T08:46:16.408Z,1031.38
2018-02-18T08:47:16.494Z,1031.39
2018-02-18T08:48:16.414Z,1031.38
2018-02-18T08:49:16.405Z,1031.4
2018-02-18T08:50:16.413Z,1031.37
2018-02-18T08:51:16.580Z,1031.37
2018-02-18T08:52:16.580Z,1031.36
2018-02-18T08:53:16.431Z,1031.35
2018-02-18T08:54:16.436Z,1031.34
2018-02-18T08:55:16.418Z,1031.39
2018-02-18T08:56:16.421Z,1031.39
2018-02-18T08:57:16.431Z,1031.43
2018-02-18T08:58:16.437Z,1031.43
2018-02-18T08:59:16.434Z,1031.41
2018-02-18T09:00:16.451Z,1031.41
2018-02-18T09:01:16.455Z,1031.37
2018-02-18T09:02:16.460Z,1031.33
2018-02-18T09:03:16.470Z,1031.32
2018-02-18T09:04:16.579Z,1031.35
2018-02-18T09:05:16.484Z,1031.33
2018-02-18T09:06:16.694Z,1031.33
2018-02-18T09:07:16.499Z,1031.33
2018-02-18T09:08:16.710Z,1031.34
2018-02-18T09:10:16.519Z,1031.35
2018-02-18T09:11:16.519Z,1031.35
2018-02-18T09:12:16.562Z,1031.38
2018-02-18T09:13:16.538Z,1031.36
2018-02-18T09:14:16.868Z,1031.41
2018-02-18T09:15:16.752Z,1031.41
2018-02-18T09:16:16.777Z,1031.42
2018-02-18T09:17:16.771Z,1031.43
2018-02-18T09:18:16.778Z,1031.48
2018-02-18T09:19:16.788Z,1031.44
2018-02-18T09:20:16.835Z,1031.49
2018-02-18T09:21:16.862Z,1031.45
2018-02-18T09:22:16.738Z,1031.46
2018-02-18T09:23:16.721Z,1031.42
2018-02-18T09:24:16.828Z,1031.46
2018-02-18T09:25:16.732Z,1031.4
2018-02-18T09:26:16.839Z,1031.44
2018-02-18T09:27:16.848Z,1031.42
2018-02-18T09:28:16.848Z,1031.41
2018-02-18T09:29:16.748Z,1031.41
2018-02-18T09:30:16.862Z,1031.42
2018-02-18T09:31:16.770Z,1031.4
2018-02-18T09:32:16.786Z,1031.42
2018-02-18T09:33:16.755Z,1031.47
2018-02-18T09:34:16.766Z,1031.44
2018-02-18T09:35:16.797Z,1031.43
2018-02-18T09:36:16.793Z,1031.43
2018-02-18T09:37:16.799Z,1031.41
2018-02-18T09:38:16.806Z,1031.42
2018-02-18T09:39:16.620Z,1031.45
2018-02-18T09:40:16.623Z,1031.42
2018-02-18T09:41:16.629Z,1031.4
2018-02-18T09:42:16.625Z,1031.4
2018-02-18T09:43:16.623Z,1031.4
2018-02-18T09:44:16.654Z,1031.35
2018-02-18T09:45:16.622Z,1031.35
2018-02-18T09:46:16.630Z,1031.32
2018-02-18T09:47:16.637Z,1031.25
2018-02-18T09:48:16.631Z,1031.26
2018-02-18T09:49:16.692Z,1031.26
2018-02-18T09:50:16.649Z,1031.25
2018-02-18T09:51:16.653Z,1031.27
2018-02-18T09:52:16.709Z,1031.21
2018-02-18T09:53:16.667Z,1031.18
2018-02-18T09:54:16.725Z,1031.16
2018-02-18T09:55:16.661Z,1031.16
2018-02-18T09:56:16.660Z,1031.14
2018-02-18T09:57:16.662Z,1031.14
2018-02-18T09:58:16.753Z,1031.15
2018-02-18T09:59:16.704Z,1031.18
2018-02-18T10:00:16.684Z,1031.16
2018-02-18T10:01:16.678Z,1031.12
2018-02-18T10:02:16.673Z,1031.12
2018-02-18T10:03:16.681Z,1031.14
2018-02-18T10:04:16.798Z,1031.11
2018-02-18T10:05:16.810Z,1031.13
2018-02-18T10:06:16.703Z,1031.16
2018-02-18T10:07:16.693Z,1031.14
2018-02-18T10:08:16.738Z,1031.08
2018-02-18T10:09:16.698Z,1031.1
2018-02-18T10:10:16.786Z,1031.08
2018-02-18T10:11:16.743Z,1031.12
2018-02-18T10:12:16.739Z,1031.12
2018-02-18T10:13:16.726Z,1031.11
2018-02-18T10:14:16.800Z,1031.18
2018-02-18T10:15:16.718Z,1031.19
2018-02-18T10:16:16.707Z,1031.18
2018-02-18T10:17:16.700Z,1031.2
2018-02-18T10:18:16.704Z,1031.23
2018-02-18T10:19:16.699Z,1031.19
2018-02-18T10:20:16.710Z,1031.19
2018-02-18T10:21:16.808Z,1031.18
2018-02-18T10:22:16.805Z,1031.17
2018-02-18T10:23:16.812Z,1031.18
2018-02-18T10:24:16.828Z,1031.21
2018-02-18T10:25:17.004Z,1031.19
2018-02-18T10:26:16.735Z,1031.21
2018-02-18T10:27:16.949Z,1031.21
2018-02-18T10:28:16.910Z,1031.27
2018-02-18T10:29:17.179Z,1031.24
2018-02-18T10:30:16.921Z,1031.25
2018-02-18T10:31:16.928Z,1031.27
2018-02-18T10:32:16.780Z,1031.26
2018-02-18T10:33:16.999Z,1031.32
2018-02-18T10:34:16.993Z,1031.31
2018-02-18T10:35:16.935Z,1031.27
2018-02-18T10:36:16.815Z,1031.29
2018-02-18T10:37:16.885Z,1031.28
2018-02-18T10:38:16.958Z,1031.32
2018-02-18T10:39:16.827Z,1031.31
2018-02-18T10:40:16.975Z,1031.27
2018-02-18T10:41:16.835Z,1031.3
2018-02-18T10:42:16.960Z,1031.34
2018-02-18T10:43:16.971Z,1031.29
2018-02-18T10:44:17.000Z,1031.25
2018-02-18T10:45:16.867Z,1031.27
2018-02-18T10:46:16.987Z,1031.21
2018-02-18T10:47:16.984Z,1031.23
2018-02-18T10:48:17.095Z,1031.16
2018-02-18T10:49:16.985Z,1031.16
2018-02-18T10:50:17.010Z,1031.18
2018-02-18T10:51:16.843Z,1031.13
2018-02-18T10:52:16.843Z,1031.11
2018-02-18T10:53:16.859Z,1031.11
2018-02-18T10:54:17.064Z,1031.13
2018-02-18T10:55:17.004Z,1031.08
2018-02-18T10:56:17.002Z,1031.09
2018-02-18T10:57:17.014Z,1031.02
2018-02-18T10:58:16.856Z,1031.01
2018-02-18T10:59:16.869Z,1031.02
2018-02-18T11:00:17.033Z,1031.03
2018-02-18T11:01:17.038Z,1031.03
2018-02-18T11:02:16.866Z,1030.99
2018-02-18T11:03:16.990Z,1031.01
2018-02-18T11:04:16.887Z,1030.96
2018-02-18T11:05:16.886Z,1030.97
2018-02-18T11:06:16.892Z,1030.96
2018-02-18T11:07:16.899Z,1031.03
2018-02-18T11:08:16.898Z,1030.99
2018-02-18T11:09:16.902Z,1030.96
2018-02-18T11:10:16.910Z,1030.99
2018-02-18T11:11:16.891Z,1030.98
2018-02-18T11:12:16.923Z,1030.97
2018-02-18T11:13:16.916Z,1030.99
2018-02-18T11:14:16.916Z,1030.99
2018-02-18T11:15:16.898Z,1030.97
2018-02-18T11:16:16.908Z,1030.98
2018-02-18T11:17:16.919Z,1031.03
2018-02-18T11:18:16.993Z,1031.02
2018-02-18T11:19:16.932Z,1030.97
2018-02-18T11:20:16.940Z,1030.97
2018-02-18T11:21:16.970Z,1030.96
2018-02-18T11:22:17.030Z,1030.95
2018-02-18T11:23:17.087Z,1030.94
2018-02-18T11:24:17.026Z,1030.92
2018-02-18T11:25:16.958Z,1030.91
2018-02-18T11:26:16.964Z,1030.87
2018-02-18T11:27:16.973Z,1030.88
2018-02-18T11:28:17.004Z,1030.86
2018-02-18T11:29:16.969Z,1030.82
2018-02-18T11:30:17.171Z,1030.81
2018-02-18T11:31:16.974Z,1030.78
2018-02-18T11:32:16.989Z,1030.78
2018-02-18T11:33:17.101Z,1030.74
2018-02-18T11:34:17.000Z,1030.72
2018-02-18T11:35:17.004Z,1030.73
2018-02-18T11:36:17.142Z,1030.77
2018-02-18T11:37:17.016Z,1030.75
2018-02-18T11:38:17.206Z,1030.74
2018-02-18T11:39:17.183Z,1030.69
2018-02-18T11:40:17.221Z,1030.74
2018-02-18T11:41:17.225Z,1030.73
2018-02-18T11:42:17.164Z,1030.63
2018-02-18T11:43:17.014Z,1030.58
2018-02-18T11:44:17.182Z,1030.59
2018-02-18T11:45:17.184Z,1030.58
2018-02-18T11:46:17.209Z,1030.54
2018-02-18T11:47:17.188Z,1030.55
2018-02-18T11:48:17.193Z,1030.51
2018-02-18T11:49:17.040Z,1030.5
2018-02-18T11:50:17.055Z,1030.51
2018-02-18T11:51:17.062Z,1030.53
2018-02-18T11:52:17.064Z,1030.52
2018-02-18T11:53:17.192Z,1030.55
2018-02-18T11:54:17.249Z,1030.51
2018-02-18T11:55:17.213Z,1030.52
2018-02-18T11:56:17.050Z,1030.5
2018-02-18T11:57:17.222Z,1030.51
2018-02-18T11:58:17.229Z,1030.51
2018-02-18T11:59:17.080Z,1030.48
2018-02-18T12:00:17.305Z,1030.53
2018-02-18T12:01:17.286Z,1030.48
2018-02-18T12:02:17.078Z,1030.48
2018-02-18T12:03:17.311Z,1030.49
2018-02-18T12:04:17.292Z,1030.46
2018-02-18T12:05:17.086Z,1030.47
2018-02-18T12:06:17.142Z,1030.43
2018-02-18T12:07:17.117Z,1030.46
2018-02-18T12:08:17.091Z,1030.44
2018-02-18T12:09:17.356Z,1030.45